Flight Track Log - Related Links

Times and Time Zones

All times are in EST time to prevent confusion due to time zone crossing. See the FSR411 flight status page for this flight to view local times or setup timezone preferences in your user account.

Time Position Orientation Groundspeed Altitude Reporting Facility
EST Latitude Longitude Course Direction KTS MPH feet Rate Location/Type
Thu 12:25:58 PM 37.7411 -81.1608 295° West 390 449 27,900  Level Indianapolis Center
Thu 12:27:00 PM 37.7947 -81.3097 295° West 398 458 28,000 484 Climbing Indianapolis Center
Thu 12:28:02 PM 37.8408 -81.4325 295° West 395 455 28,900 1,403 Climbing Indianapolis Center
Thu 12:29:04 PM 37.8858 -81.5575 295° West 386 444 30,900 1,790 Climbing Indianapolis Center
Thu 12:30:06 PM 37.9411 -81.6725 301° West 381 438 32,600 1,610 Climbing Indianapolis Center
Thu 12:31:07 PM 38.0011 -81.7856 304° West 384 442 34,200 1,415 Climbing Indianapolis Center
Thu 12:32:09 PM 38.0606 -81.8981 296° West 383 441 35,500 1,403 Climbing Indianapolis Center
Thu 12:33:11 PM 38.1469 -81.9881 321° Northwest 401 461 37,100 1,403 Climbing Indianapolis Center
Thu 12:34:13 PM 38.2319 -82.0781 320° Northwest 397 457 38,400 1,016 Climbing Indianapolis Center
Thu 12:35:15 PM 38.3203 -82.1983 313° West 402 463 39,200 823 Climbing Indianapolis Center
Thu 12:36:17 PM 38.3581 -82.3175 292° West 368 423 40,100 927 Climbing Indianapolis Center
Thu 12:37:18 PM 38.3939 -82.4383 291° West 363 418 41,100 878 Climbing Indianapolis Center
Thu 12:38:20 PM 38.4342 -82.5642 292° West 362 417 41,900 677 Climbing Indianapolis Center
Thu 12:39:22 PM 38.4706 -82.6819 292° West 359 413 42,500 532 Climbing Indianapolis Center
Thu 12:40:24 PM 38.5067 -82.7986 292° West 356 410 43,000 242 Climbing Indianapolis Center
Thu 12:41:26 PM 38.5447 -82.9225 291° West 366 421 43,000  Level Indianapolis Center
Thu 12:42:28 PM 38.5831 -83.0472 291° West 375 432 43,000  Level Indianapolis Center
Thu 12:43:30 PM 38.6278 -83.1958 291° West 382 440 43,000  Level Indianapolis Center
Thu 12:44:32 PM 38.6667 -83.3208 292° West 382 440 43,000  Level Indianapolis Center
Thu 12:45:34 PM 38.7047 -83.4447 292° West 377 434 43,000  Level Indianapolis Center
Thu 12:46:36 PM 38.7419 -83.5692 291° West 375 432 43,000  Level Indianapolis Center
Thu 12:47:38 PM 38.7797 -83.6928 291° West 373 429 43,000  Level Indianapolis Center
Thu 12:48:40 PM 38.8167 -83.8186 291° West 376 433 43,000  Level Indianapolis Center
Thu 12:49:41 PM 38.8539 -83.9456 291° West 379 436 43,000  Level Indianapolis Center
Thu 12:50:43 PM 38.8989 -84.0964 291° West 379 436 43,000  Level Indianapolis Center
Thu 12:51:45 PM 38.9364 -84.2236 291° West 378 435 43,000  Level Indianapolis Center
Thu 12:52:47 PM 38.9739 -84.3536 290° West 384 442 43,000  Level Indianapolis Center
Thu 12:53:49 PM 39.0119 -84.4828 291° West 386 444 43,000  Level Indianapolis Center
Thu 12:54:51 PM 39.0517 -84.6133 291° West 391 450 43,000  Level Indianapolis Center
Thu 12:55:53 PM 39.0883 -84.7442 290° West 389 448 43,000 -339 Level Indianapolis Center
Thu 12:56:55 PM 39.1319 -84.8978 290° West 389 448 42,300 -1,065 Descending Indianapolis Center
Thu 12:57:57 PM 39.1686 -85.0231 291° West 378 435 40,800 -1,548 Descending Indianapolis Center
Thu 12:58:59 PM 39.2042 -85.1489 290° West 374 430 39,100 -1,597 Descending Indianapolis Center
Thu 01:00:01 PM 39.2386 -85.2714 290° West 369 425 37,500 -1,452 Descending Indianapolis Center
Thu 01:01:03 PM 39.2722 -85.3922 290° West 359 413 36,100 -1,161 Descending Indianapolis Center
Thu 01:02:05 PM 39.3064 -85.5125 290° West 358 412 35,100 -532 Descending Indianapolis Center
Thu 01:03:07 PM 39.3481 -85.6628 290° West 370 426 35,000 -97 Descending Indianapolis Center
Thu 01:04:09 PM 39.3828 -85.7881 290° West 371 427 34,900 -581 Descending Indianapolis Center
Thu 01:05:11 PM 39.4169 -85.9117 290° West 368 423 33,800 -1,113 Descending Indianapolis Center
Thu 01:06:13 PM 39.4508 -86.0331 290° West 361 415 32,600 -1,258 Descending Indianapolis Center
Thu 01:07:15 PM 39.4839 -86.1561 289° West 362 417 31,200 -1,306 Descending Indianapolis Center
Thu 01:08:17 PM 39.5181 -86.2800 290° West 363 418 29,900 -1,500 Descending Indianapolis Center
Thu 01:09:19 PM 39.5506 -86.4017 289° West 357 411 28,100 -1,935 Descending Indianapolis Center
Thu 01:10:21 PM 39.5894 -86.5422 290° West 345 397 25,900 -1,790 Descending Indianapolis Center
Thu 01:11:23 PM 39.6178 -86.6511 289° West 329 379 24,400 -1,645 Descending Indianapolis Center
Thu 01:12:25 PM 39.6450 -86.7542 289° West 309 356 22,500 -1,790 Descending Indianapolis Center
Thu 01:13:27 PM 39.6731 -86.8581 289° West 306 352 20,700 -1,839 Descending Indianapolis Center
Thu 01:14:29 PM 39.6994 -86.9597 289° West 300 345 18,700 -1,694 Descending Indianapolis Center
Thu 01:15:31 PM 39.7275 -87.0664 289° West 308 354 17,200 -1,694 Descending Indianapolis Center
Thu 01:16:33 PM 39.7631 -87.2008 289° West 324 373 15,200 -1,680 Descending Indianapolis Center
Thu 01:17:36 PM 39.7908 -87.3097 288° West 321 369 13,700 -1,296 Descending Indianapolis Center
Thu 01:18:38 PM 39.8192 -87.4167 289° West 317 365 12,500 -1,210 Descending Indianapolis Center
Thu 01:19:40 PM 39.8467 -87.5208 289° West 310 357 11,200 -1,403 Descending Indianapolis Center
Thu 01:20:42 PM 39.8692 -87.6117 288° West 273 314 9,600 -1,597 Descending Indianapolis Center
Thu 01:21:44 PM 39.8911 -87.6961 289° West 250 288 7,900 -1,790 Descending Indianapolis Center
Thu 01:22:46 PM 39.9181 -87.7942 290° West 243 280 5,900 -1,500 Descending Indianapolis Center
Thu 01:23:48 PM 39.9364 -87.8661 288° West 241 277 4,800 -1,065 Descending Indianapolis Center
Thu 01:25:00 PM 39.9667 -88.0109 270° West  Level FlightAware Approximate
Thu 01:32:00 PM 40.0333 -88.2667 288° West  Level FlightAware Approximate
Thu 01:33:00 PM 40.0388 -88.2778 288° West  Level Estimated
Thu 01:34:00 PM 40.0388 -88.2778 288° West  Level Estimated
Thu 01:35:00 PM 40.0388 -88.2778 288° West  Level Estimated
Thu 01:36:00 PM 40.0388 -88.2778 288° West  Level Estimated

Login

Don't have an account? Register now (free) for customized features, flight alerts, and more!